AirNav   Duncan Aviation - Near you to keep you flying
 
 463 users online  

14N Beltzville Airport
Lehighton, Pennsylvania, USA

GOING TO LEHIGHTON?


FAA INFORMATION EFFECTIVE 09 SEPTEMBER 2021

Location

FAA Identifier: 14N
Lat/Long: 40-50-39.4350N 075-38-07.2750W
40-50.657250N 075-38.121250W
40.8442875,-75.6353542
(estimated)
Elevation: 899 ft. / 274.0 m (surveyed)
Variation: 11W (1985)
From city: 3 miles E of LEHIGHTON, PA
Time zone: UTC -4 (UTC -5 during Standard Time)
Zip code: 18235

Airport Operations

Airport use: Open to the public
Activation date: 12/1949
Control tower: no
ARTCC: NEW YORK CENTER
FSS: WILLIAMSPORT FLIGHT SERVICE STATION
NOTAMs facility: IPT (NOTAM-D service available)
Attendance: IREG
FOR SVC CTC (610) 377-1996.
Wind indicator: yes
Segmented circle: no

Airport Communications

CTAF: 122.9
WX AWOS-3PT at 22N (6 nm W): 119.350 (570-386-3423)
WX ASOS at ABE (15 nm SE): 126.975 (610-264-1765)
WX AWOS-3 at XLL (18 nm S): 127.875 (610-231-3111)
WX AWOS-3 at HZL (18 nm NW): 119.975 (570-459-4901)
  • ANNOUNCE TFC ON CTAF.

Nearby radio navigation aids

VOR radial/distance  VOR name  Freq  Var
FJCr321/10.8ALLENTOWN VORTAC117.5010W
ETXr017/15.9EAST TEXAS VOR/DME110.2009W
LVZr185/25.8WILKES-BARRE VORTAC111.6010W
STWr266/35.9STILLWATER VOR/DME109.6011W
BWZr285/37.0BROADWAY VOR/DME114.2011W
PTWr004/37.5POTTSTOWN VORTAC116.5009W

Airport Services

Parking: hangars and tiedowns
Airframe service: MINOR
Powerplant service: MINOR

Runway Information

Runway 8/26

Dimensions: 2018 x 100 ft. / 615 x 30 m
Surface: turf, in good condition
Weight bearing capacity: 
Single wheel: 5.0
Operational restrictions: THRS MKD WITH WHITE MKRS. EDGE MKRS ALG SE EDGE ONLY.
RUNWAY 8  RUNWAY 26
Latitude: 40-50.586667N40-50.727833N
Longitude: 075-38.319333W075-37.923167W
Elevation: 886.0 ft.889.0 ft.
Traffic pattern: leftleft
Displaced threshold: 360 ft.230 ft.
Obstructions: 16 ft. road, 24 ft. from runway, 1:1 slope to clear
APCH RATIO 24:1 TO DSPLCD THLD.
13 ft. fence, 48 ft. from runway, 76 ft. right of centerline, 3:1 slope to clear
APCH RATIO 21:1 TO DSPLCD THLD.

Airport Ownership and Management from official FAA records

Ownership: Privately-owned
Owner: RICHARD BELTZ
357 AIRPORT RD
LEHIGHTON, PA 18235
Phone 610-377-1996
Manager: RICHARD D. BELTZ
357 AIRPORT ROAD
LEHIGHTON, PA 18235
Phone 610-377-1996

Airport Operational Statistics

Aircraft based on the field: 36
Single engine airplanes: 17
Gliders airplanes: 15
Ultralights: 4
    
Aircraft operations: avg 29/week *
98% local general aviation
2% transient general aviation
* for 12-month period ending 12 April 2021

Additional Remarks

A30A-26 117 FT TREES 1012 FT FROM RWY END 124 FT R; 10:1 SLOPE TO DISP THLD.
RWY NOT PLOWED DURING WINTER.
ULTRALIGHT TFC, DEER & GEESE ON & INVOF ARPT.
EXPC LGT TO MOD TURB WITH N WINDS 10-15 KTS; OPS NOT RCMDD OVER 15 KTS.
FOR CD CTC ALLENTOWN APCH AT 800-728-6322.

Instrument Procedures

There are no published instrument procedures at 14N.

Some nearby airports with instrument procedures:

22N - Jake Arner Memorial Airport (6 nm W)
KABE - Lehigh Valley International Airport (15 nm SE)
KXLL - Allentown Queen City Municipal Airport (18 nm S)
KHZL - Hazleton Regional Airport (18 nm NW)
N43 - Braden Airpark (19 nm E)
 
Loc | Ops | Rwys | IFR | FBO | Links
Com | Nav | Svcs | Stats | Notes
Area around 14N (Beltzville Airport)
 
Road maps at: MapQuest Bing Google
 
Aerial photo
WARNING: Photo may not be current or correct
Aerial photo of 14N (Beltzville Airport)
Photo By Parachute Trails

Do you have a better or more recent aerial photo of Beltzville Airport that you would like to share? If so, please send us your photo.

 
Sectional chart

 
Airport distance calculator
Flying to Beltzville Airport? Find the distance to fly.

From to 14N

Sunrise and sunset
Times for 24-Sep-2021
 Local
(UTC-4)
 Zulu
(UTC)
Morning civil twilight06:2610:26
Sunrise06:5310:53
Sunset18:5622:56
Evening civil twilight19:2423:24

Current date and time
Zulu (UTC)  24-Sep-2021 07:04:41
Local (UTC-4)  24-Sep-2021 03:04:41
 
METAR
K22N 
6nm W 
240655Z AUTO 00000KT 4SM BR SCT001 11/11 A3002 RMK AO2 LTG DSNT SE
KABE 
14nm SE 
240651Z 00000KT 10SM FEW055 12/09 A3000 RMK AO2 SLP160 T01220094
KXLL 
18nm S 
240655Z AUTO 00000KT 10SM SCT055 13/11 A3002 RMK AO2 LTG DSNT SE
KHZL 
18nm NW 
240655Z AUTO 00000KT 7SM CLR 06/05 A3004 RMK AO2 LTG DSNT SE
TAF
KABE 
14nm SE 
240531Z 2406/2506 27004KT P6SM BKN060 FM240900 30003KT P6SM FEW120 FM241300 27006KT P6SM SKC FM241800 27007KT P6SM FEW040 FM250000 26002KT P6SM SKC
NOTAMs
Click for the latest NOTAMs
NOTAMs are issued by the DoD/FAA and will open in a separate window not controlled by AirNav.

 

 
 

Would you like to see your business listed on this page?

 If your business provides an interesting product or service to pilots, flight crews, aircraft, or users of the Beltzville Airport, you should consider listing it here.  To start the listing process, click on the button below
 
Add a business
 

Other Pages about Beltzville Airport

Update a link
 
Copyright © AirNav, LLC. All rights reserved. Privacy Policy  Contact